createdAt,value
2022-12-13T00:02:18.746Z,17.13
2022-12-13T00:04:46.063Z,16.55
2022-12-13T00:07:13.520Z,18.65
2022-12-13T00:09:42.887Z,15.70
2022-12-13T00:12:10.137Z,16.88
2022-12-13T00:14:38.352Z,18.25
2022-12-13T00:17:06.900Z,16.65
2022-12-13T00:19:34.183Z,16.73
2022-12-13T00:22:01.532Z,17.05
2022-12-13T00:24:28.876Z,17.42
2022-12-13T00:26:56.582Z,16.48
2022-12-13T00:29:23.825Z,16.63
2022-12-13T00:31:59.437Z,17.23
2022-12-13T00:34:28.142Z,18.48
2022-12-13T00:36:55.521Z,16.83
2022-12-13T00:39:22.857Z,18.85
2022-12-13T00:41:50.089Z,13.75
2022-12-13T00:44:19.029Z,17.25
2022-12-13T00:46:47.572Z,16.35
2022-12-13T00:49:14.885Z,16.98
2022-12-13T00:51:42.350Z,15.60
2022-12-13T00:54:10.667Z,16.92
2022-12-13T00:56:38.672Z,12.10
2022-12-13T00:59:06.253Z,13.57
2022-12-13T01:01:36.058Z,15.98
2022-12-13T01:04:04.366Z,11.55
2022-12-13T01:06:34.473Z,12.55
2022-12-13T01:09:02.063Z,12.57
2022-12-13T01:11:29.366Z,12.25
2022-12-13T01:13:56.789Z,20.08
2022-12-13T01:16:24.087Z,17.70
2022-12-13T01:18:51.654Z,15.73
2022-12-13T01:21:23.293Z,17.38
2022-12-13T01:23:50.664Z,16.75
2022-12-13T01:26:19.080Z,14.75
2022-12-13T01:28:46.963Z,14.73
2022-12-13T01:31:15.136Z,15.50
2022-12-13T01:33:42.816Z,12.40
2022-12-13T01:36:17.198Z,14.73
2022-12-13T01:38:44.818Z,12.57
2022-12-13T01:41:19.790Z,12.98
2022-12-13T01:43:47.078Z,14.38
2022-12-13T01:46:14.983Z,14.18
2022-12-13T01:48:45.383Z,13.88
2022-12-13T01:51:13.581Z,13.20
2022-12-13T01:53:41.713Z,10.73
2022-12-13T01:56:15.679Z,12.75
2022-12-13T01:58:43.229Z,13.80
2022-12-13T02:01:11.093Z,13.52
2022-12-13T02:03:38.650Z,17.13
2022-12-13T02:06:11.419Z,14.48
2022-12-13T02:08:41.153Z,18.92
2022-12-13T02:11:08.676Z,15.32
2022-12-13T02:13:38.996Z,21.90
2022-12-13T02:16:06.368Z,14.57
2022-12-13T02:18:39.787Z,17.67
2022-12-13T02:21:12.881Z,14.50
2022-12-13T02:23:40.082Z,15.45
2022-12-13T02:26:26.300Z,19.45
2022-12-13T02:28:56.367Z,16.13
2022-12-13T02:31:36.344Z,14.60
2022-12-13T02:34:07.588Z,19.67
2022-12-13T02:36:45.971Z,16.02
2022-12-13T02:39:30.710Z,21.42
2022-12-13T02:42:02.000Z,15.55
2022-12-13T02:44:40.277Z,14.35
2022-12-13T02:47:12.722Z,15.05
2022-12-13T02:49:50.883Z,17.45
2022-12-13T02:52:22.165Z,16.50
2022-12-13T02:54:50.070Z,14.93
2022-12-13T02:57:32.594Z,16.17
2022-12-13T03:00:05.926Z,15.18
2022-12-13T03:02:48.694Z,16.17
2022-12-13T03:05:54.597Z,15.80
2022-12-13T03:08:27.975Z,16.20
2022-12-13T03:10:58.175Z,16.58
2022-12-13T03:13:36.817Z,20.30
2022-12-13T03:16:26.140Z,18.48
2022-12-13T03:18:54.831Z,18.25
2022-12-13T03:21:22.689Z,15.70
2022-12-13T03:23:50.018Z,18.73
2022-12-13T03:26:27.636Z,19.92
2022-12-13T03:28:55.364Z,18.02
2022-12-13T03:31:22.829Z,21.55
2022-12-13T03:33:50.289Z,20.63
2022-12-13T03:36:19.039Z,20.23
2022-12-13T03:38:50.586Z,20.23
2022-12-13T03:41:19.048Z,20.25
2022-12-13T03:43:46.599Z,18.75
2022-12-13T03:46:13.998Z,23.10
2022-12-13T03:48:41.409Z,18.55
2022-12-13T03:51:08.939Z,18.23
2022-12-13T03:53:36.194Z,21.80
2022-12-13T03:56:04.677Z,20.92
2022-12-13T03:58:36.063Z,18.52
2022-12-13T04:01:08.869Z,17.77
2022-12-13T04:03:36.765Z,22.42
2022-12-13T04:06:04.348Z,20.15
2022-12-13T04:08:31.933Z,19.55
2022-12-13T04:10:59.216Z,16.58
2022-12-13T04:13:32.907Z,24.05
2022-12-13T04:16:00.513Z,21.30
2022-12-13T04:18:27.911Z,18.40
2022-12-13T04:20:55.308Z,16.13
2022-12-13T04:23:23.016Z,15.95
2022-12-13T04:25:50.507Z,18.73
2022-12-13T04:28:21.813Z,20.27
2022-12-13T04:30:53.152Z,17.90
2022-12-13T04:33:22.349Z,17.10
2022-12-13T04:35:50.043Z,16.70
2022-12-13T04:38:17.312Z,20.83
2022-12-13T04:40:44.535Z,18.20
2022-12-13T04:43:11.892Z,17.63
2022-12-13T04:45:39.288Z,21.85
2022-12-13T04:48:06.863Z,17.75
2022-12-13T04:50:34.279Z,20.77
2022-12-13T04:53:01.628Z,18.85
2022-12-13T04:55:28.947Z,20.20
2022-12-13T04:57:56.294Z,18.92
2022-12-13T05:00:23.576Z,18.67
2022-12-13T05:02:51.148Z,22.20
2022-12-13T05:05:18.911Z,22.88
2022-12-13T05:07:46.711Z,18.25
2022-12-13T05:10:34.007Z,19.20
2022-12-13T05:13:02.859Z,18.17
2022-12-13T05:15:30.894Z,19.45
2022-12-13T05:18:09.872Z,19.33
2022-12-13T05:20:37.929Z,16.30
2022-12-13T05:23:05.288Z,16.17
2022-12-13T05:25:34.202Z,19.60
2022-12-13T05:28:08.982Z,18.05
2022-12-13T05:30:48.759Z,19.42
2022-12-13T05:33:16.409Z,17.75
2022-12-13T05:35:43.786Z,18.02
2022-12-13T05:38:11.050Z,17.40
2022-12-13T05:40:38.440Z,19.17
2022-12-13T05:43:21.782Z,22.83
2022-12-13T05:45:50.053Z,17.17
2022-12-13T05:48:24.779Z,22.02
2022-12-13T05:51:10.831Z,20.02
2022-12-13T05:53:39.971Z,22.63
2022-12-13T05:56:07.508Z,19.23
2022-12-13T05:58:35.928Z,23.20
2022-12-13T06:01:13.288Z,21.90
2022-12-13T06:03:41.659Z,22.38
2022-12-13T06:06:10.107Z,24.15
2022-12-13T06:08:37.798Z,22.45
2022-12-13T06:11:10.838Z,19.30
2022-12-13T06:13:43.840Z,20.00
2022-12-13T06:16:23.173Z,22.65
2022-12-13T06:18:55.863Z,17.80
2022-12-13T06:21:39.162Z,21.23
2022-12-13T06:24:13.529Z,22.30
2022-12-13T06:26:40.714Z,21.77
2022-12-13T06:29:08.005Z,24.48
2022-12-13T06:31:35.649Z,23.00
2022-12-13T06:34:14.465Z,21.15
2022-12-13T06:36:43.102Z,25.08
2022-12-13T06:39:10.370Z,21.55
2022-12-13T06:41:37.818Z,22.65
2022-12-13T06:44:05.811Z,20.38
2022-12-13T06:46:33.475Z,22.30
2022-12-13T06:49:01.527Z,19.88
2022-12-13T06:51:32.502Z,23.40
2022-12-13T06:54:02.263Z,24.92
2022-12-13T06:56:30.154Z,21.30
2022-12-13T06:59:01.912Z,22.80
2022-12-13T07:01:36.895Z,19.42
2022-12-13T07:04:05.577Z,21.27
2022-12-13T07:06:52.933Z,24.08
2022-12-13T07:09:20.503Z,22.10
2022-12-13T07:11:51.935Z,21.27
2022-12-13T07:14:19.776Z,23.33
2022-12-13T07:16:47.136Z,24.45
2022-12-13T07:19:23.733Z,22.52
2022-12-13T07:21:52.174Z,21.20
2022-12-13T07:24:19.752Z,20.23
2022-12-13T07:26:47.364Z,23.27
2022-12-13T07:29:22.612Z,19.70
2022-12-13T07:31:50.431Z,23.30
2022-12-13T07:34:17.907Z,20.45
2022-12-13T07:36:45.212Z,21.75
2022-12-13T07:39:12.425Z,19.27
2022-12-13T07:41:39.965Z,21.70
2022-12-13T07:44:07.936Z,22.13
2022-12-13T07:46:35.383Z,24.00
2022-12-13T07:49:03.489Z,17.52
2022-12-13T07:51:30.908Z,21.08
2022-12-13T07:53:58.335Z,22.88
2022-12-13T07:56:25.887Z,23.05
2022-12-13T07:58:53.111Z,18.52
2022-12-13T08:01:20.610Z,19.80
2022-12-13T08:03:51.020Z,18.75
2022-12-13T08:06:20.003Z,18.48
2022-12-13T08:09:20.335Z,18.50
2022-12-13T08:11:48.958Z,20.00
2022-12-13T08:14:16.376Z,19.50
2022-12-13T08:16:43.969Z,20.60
2022-12-13T08:19:11.316Z,20.52
2022-12-13T08:21:57.356Z,18.30
2022-12-13T08:24:27.098Z,21.25
2022-12-13T08:26:55.106Z,17.27
2022-12-13T08:29:34.119Z,18.55
2022-12-13T08:32:08.416Z,19.65
2022-12-13T08:34:35.778Z,19.88
2022-12-13T08:37:04.128Z,17.23
2022-12-13T08:39:34.335Z,16.27
2022-12-13T08:42:14.890Z,16.90
2022-12-13T08:44:46.509Z,18.80
2022-12-13T08:47:23.249Z,18.52
2022-12-13T08:49:56.132Z,20.02
2022-12-13T08:52:31.279Z,17.40
2022-12-13T08:54:58.698Z,18.75
2022-12-13T08:57:26.257Z,23.25
2022-12-13T08:59:54.581Z,20.73
2022-12-13T09:02:22.046Z,23.83
2022-12-13T09:04:50.024Z,23.27
2022-12-13T09:07:17.322Z,18.92
2022-12-13T09:09:46.641Z,20.25
2022-12-13T09:12:30.765Z,23.35
2022-12-13T09:15:01.140Z,17.60
2022-12-13T09:17:36.372Z,20.45
2022-12-13T09:20:09.691Z,20.48
2022-12-13T09:22:39.176Z,19.08
2022-12-13T09:25:14.814Z,16.25
2022-12-13T09:27:57.164Z,16.25
2022-12-13T09:30:26.386Z,15.52
2022-12-13T09:32:59.223Z,16.88
2022-12-13T09:35:45.998Z,16.55
2022-12-13T09:38:13.401Z,16.48
2022-12-13T09:40:42.110Z,22.45
2022-12-13T09:43:21.950Z,20.98
2022-12-13T09:45:54.456Z,21.60
2022-12-13T09:48:34.562Z,20.45
2022-12-13T09:51:18.342Z,20.15
2022-12-13T09:53:51.303Z,19.05
2022-12-13T09:56:20.072Z,21.88
2022-12-13T09:58:52.327Z,19.83
2022-12-13T10:01:23.503Z,19.92
2022-12-13T10:03:52.242Z,20.85
2022-12-13T10:06:22.612Z,19.23
2022-12-13T10:08:57.859Z,18.65
2022-12-13T10:11:32.663Z,18.83
2022-12-13T10:14:15.672Z,15.30
2022-12-13T10:16:43.826Z,16.63
2022-12-13T10:19:30.422Z,16.60
2022-12-13T10:22:02.037Z,19.80
2022-12-13T10:24:48.524Z,17.30
2022-12-13T10:27:17.276Z,20.98
2022-12-13T10:30:01.693Z,18.85
2022-12-13T10:32:29.326Z,16.23
2022-12-13T10:34:58.430Z,17.58
2022-12-13T10:37:30.638Z,17.90
2022-12-13T10:39:58.531Z,20.50
2022-12-13T10:42:32.133Z,18.75
2022-12-13T10:45:15.161Z,15.77
2022-12-13T10:47:45.815Z,18.58
2022-12-13T10:50:25.960Z,16.27
2022-12-13T10:52:53.872Z,19.77
2022-12-13T10:55:29.308Z,19.73
2022-12-13T10:58:02.058Z,19.33
2022-12-13T11:00:35.013Z,18.52
2022-12-13T11:03:02.882Z,17.85
2022-12-13T11:05:33.401Z,18.10
2022-12-13T11:08:26.675Z,20.48
2022-12-13T11:11:01.887Z,23.05
2022-12-13T11:13:34.299Z,20.27
2022-12-13T11:16:01.981Z,17.20
2022-12-13T11:18:35.526Z,16.48
2022-12-13T11:21:03.937Z,17.00
2022-12-13T11:23:31.216Z,19.13
2022-12-13T11:26:00.779Z,17.17
2022-12-13T11:28:48.333Z,20.13
2022-12-13T11:31:30.835Z,19.33
2022-12-13T11:34:04.427Z,15.60
2022-12-13T11:36:37.520Z,17.83
2022-12-13T11:39:16.900Z,21.25
2022-12-13T11:41:55.627Z,17.88
2022-12-13T11:44:28.550Z,18.27
2022-12-13T11:46:57.038Z,18.27
2022-12-13T11:49:45.902Z,17.17
2022-12-13T11:52:13.402Z,17.98
2022-12-13T11:54:47.648Z,17.95
2022-12-13T11:57:28.939Z,17.75
2022-12-13T12:00:03.567Z,19.75
2022-12-13T12:02:45.369Z,17.55
2022-12-13T12:05:22.558Z,16.88
2022-12-13T12:08:21.153Z,16.45
2022-12-13T12:10:49.422Z,17.65
2022-12-13T12:13:33.540Z,15.93
2022-12-13T12:16:16.146Z,17.63
2022-12-13T12:18:43.839Z,14.88
2022-12-13T12:21:37.328Z,17.00
2022-12-13T12:24:12.275Z,14.27
2022-12-13T12:26:58.568Z,15.30
2022-12-13T12:29:26.042Z,15.65
2022-12-13T12:32:00.035Z,14.43
2022-12-13T12:34:36.697Z,16.42
2022-12-13T12:37:22.449Z,14.35
2022-12-13T12:40:52.295Z,15.80
2022-12-13T12:43:26.060Z,17.77
2022-12-13T12:45:57.481Z,15.65
2022-12-13T12:48:56.900Z,15.05
2022-12-13T12:51:18.647Z,16.45
2022-12-13T12:53:50.658Z,18.80
2022-12-13T12:56:36.657Z,17.48
2022-12-13T12:59:03.979Z,19.42
2022-12-13T13:01:51.842Z,18.15
2022-12-13T13:04:22.096Z,17.33
2022-12-13T13:06:54.173Z,18.17
2022-12-13T13:09:31.643Z,18.15
2022-12-13T13:11:59.506Z,17.27
2022-12-13T13:14:39.884Z,16.77
2022-12-13T13:17:25.711Z,17.90
2022-12-13T13:20:12.683Z,18.73
2022-12-13T13:22:44.430Z,18.58
2022-12-13T13:25:25.886Z,19.60
2022-12-13T13:28:01.933Z,17.17
2022-12-13T13:30:30.329Z,18.88
2022-12-13T13:32:58.352Z,13.85
2022-12-13T13:35:29.136Z,19.30
2022-12-13T13:38:04.478Z,17.27
2022-12-13T13:40:38.776Z,17.88
2022-12-13T13:43:06.271Z,19.33
2022-12-13T13:45:53.318Z,18.52
2022-12-13T13:48:20.664Z,17.50
2022-12-13T13:50:47.880Z,18.98
2022-12-13T13:53:35.380Z,21.88
2022-12-13T13:56:21.232Z,23.23
2022-12-13T13:58:49.565Z,23.05
2022-12-13T14:01:35.816Z,23.08
2022-12-13T14:04:22.614Z,21.45
2022-12-13T14:06:51.695Z,23.75
2022-12-13T14:09:18.921Z,21.83
2022-12-13T14:11:50.647Z,21.88
2022-12-13T14:14:50.112Z,25.70
2022-12-13T14:17:23.764Z,18.77
2022-12-13T14:20:00.291Z,19.23
2022-12-13T14:22:35.343Z,24.60
2022-12-13T14:27:45.383Z,20.27
2022-12-13T14:30:27.532Z,19.15
2022-12-13T14:32:56.149Z,20.73
2022-12-13T14:35:26.827Z,21.35
2022-12-13T14:38:20.697Z,21.52
2022-12-13T14:40:50.017Z,20.83
2022-12-13T14:43:27.649Z,19.25
2022-12-13T14:45:59.144Z,19.23
2022-12-13T14:48:28.699Z,18.75
2022-12-13T14:50:57.533Z,20.35
2022-12-13T14:53:37.383Z,19.48
2022-12-13T14:56:27.608Z,19.00
2022-12-13T14:59:00.753Z,21.63
2022-12-13T15:01:30.899Z,19.75
2022-12-13T15:04:17.459Z,23.60
2022-12-13T15:06:48.502Z,19.38
2022-12-13T15:09:16.898Z,18.30
2022-12-13T15:11:45.303Z,23.00
2022-12-13T15:14:17.032Z,19.23
2022-12-13T15:16:51.241Z,20.80
2022-12-13T15:19:30.112Z,20.75
2022-12-13T15:22:14.530Z,20.77
2022-12-13T15:24:51.032Z,18.17
2022-12-13T15:27:27.204Z,22.08
2022-12-13T15:29:54.889Z,19.02
2022-12-13T15:32:25.712Z,21.25
2022-12-13T15:34:53.207Z,17.55
2022-12-13T15:37:28.957Z,21.45
2022-12-13T15:40:00.151Z,16.90
2022-12-13T15:42:33.730Z,17.25
2022-12-13T15:45:02.623Z,19.23
2022-12-13T15:47:30.092Z,21.73
2022-12-13T15:50:01.725Z,19.17
2022-12-13T15:52:32.263Z,16.73
2022-12-13T15:55:02.403Z,15.88
2022-12-13T15:57:32.227Z,16.77
2022-12-13T16:00:31.394Z,17.35
2022-12-13T16:03:13.613Z,18.30
2022-12-13T16:05:51.289Z,18.52
2022-12-13T16:08:39.339Z,19.80
2022-12-13T16:11:08.511Z,17.17
2022-12-13T16:13:37.659Z,19.30
2022-12-13T16:16:27.421Z,20.33
2022-12-13T16:18:59.596Z,19.38
2022-12-13T16:21:28.035Z,27.10
2022-12-13T16:23:55.363Z,50.15
2022-12-13T16:26:27.186Z,42.15
2022-12-13T16:28:55.369Z,33.33
2022-12-13T16:31:23.972Z,29.23
2022-12-13T16:33:51.599Z,29.10
2022-12-13T16:36:19.038Z,25.85
2022-12-13T16:38:46.423Z,30.08
2022-12-13T16:41:14.810Z,30.38
2022-12-13T16:44:02.428Z,26.63
2022-12-13T16:47:14.615Z,27.83
2022-12-13T16:49:19.655Z,24.15
2022-12-13T16:51:48.914Z,27.45
2022-12-13T16:54:17.125Z,36.65
2022-12-13T16:56:44.423Z,26.67
2022-12-13T16:59:14.060Z,26.98
2022-12-13T17:01:42.031Z,27.73
2022-12-13T17:04:16.349Z,24.50
2022-12-13T17:06:46.827Z,25.85
2022-12-13T17:09:14.744Z,28.00
2022-12-13T17:11:42.095Z,26.00
2022-12-13T17:14:09.418Z,25.83
2022-12-13T17:16:36.857Z,27.30
2022-12-13T17:19:04.160Z,28.67
2022-12-13T17:21:31.549Z,27.65
2022-12-13T17:24:00.683Z,27.90
2022-12-13T17:26:28.713Z,26.98
2022-12-13T17:28:55.969Z,24.17
2022-12-13T17:31:23.720Z,26.83
2022-12-13T17:33:52.383Z,30.50
2022-12-13T17:36:19.699Z,27.92
2022-12-13T17:38:47.679Z,28.27
2022-12-13T17:41:18.337Z,28.58
2022-12-13T17:43:45.723Z,24.77
2022-12-13T17:46:14.684Z,28.30
2022-12-13T17:48:42.786Z,26.73
2022-12-13T17:51:11.439Z,28.40
2022-12-13T17:53:42.478Z,26.13
2022-12-13T17:56:12.189Z,27.83
2022-12-13T17:58:40.160Z,27.98
2022-12-13T18:01:14.729Z,27.92
2022-12-13T18:03:42.477Z,27.17
2022-12-13T18:06:09.779Z,27.58
2022-12-13T18:08:40.466Z,28.48
2022-12-13T18:13:56.339Z,26.50
2022-12-13T18:16:25.298Z,28.75
2022-12-13T18:18:55.989Z,32.20
2022-12-13T18:21:24.051Z,29.58
2022-12-13T18:23:55.704Z,30.27
2022-12-13T18:26:24.841Z,29.98
2022-12-13T18:28:52.514Z,28.15
2022-12-13T18:31:22.207Z,30.88
2022-12-13T18:33:50.437Z,29.70
2022-12-13T18:36:18.098Z,30.73
2022-12-13T18:38:45.458Z,25.63
2022-12-13T18:41:16.804Z,30.02
2022-12-13T18:43:44.733Z,29.60
2022-12-13T18:46:12.642Z,29.52
2022-12-13T18:48:41.120Z,33.35
2022-12-13T18:51:09.754Z,28.75
2022-12-13T18:53:37.762Z,29.20
2022-12-13T18:56:16.091Z,25.50
2022-12-13T18:58:45.984Z,28.48
2022-12-13T19:01:13.772Z,30.08
2022-12-13T19:03:43.015Z,31.05
2022-12-13T19:06:12.104Z,34.60
2022-12-13T19:08:39.662Z,29.70
2022-12-13T19:11:07.108Z,29.85
2022-12-13T19:13:34.515Z,28.20
2022-12-13T19:16:06.925Z,30.52
2022-12-13T19:18:34.504Z,31.13
2022-12-13T19:21:01.954Z,28.42
2022-12-13T19:23:29.931Z,28.98
2022-12-13T19:25:57.493Z,24.55
2022-12-13T19:28:24.955Z,27.10
2022-12-13T19:30:52.291Z,26.85
2022-12-13T19:33:19.690Z,26.13
2022-12-13T19:35:47.291Z,25.55
2022-12-13T19:38:14.761Z,28.23
2022-12-13T19:40:43.331Z,26.83
2022-12-13T19:43:11.452Z,28.77
2022-12-13T19:45:38.999Z,30.25
2022-12-13T19:48:06.445Z,24.48
2022-12-13T19:50:33.735Z,23.98
2022-12-13T19:53:01.163Z,27.88
2022-12-13T19:55:28.442Z,25.75
2022-12-13T19:57:55.964Z,25.08
2022-12-13T20:00:23.286Z,23.35
2022-12-13T20:02:50.777Z,25.85
2022-12-13T20:05:19.838Z,26.27
2022-12-13T20:07:47.331Z,28.83
2022-12-13T20:10:15.946Z,24.42
2022-12-13T20:12:44.526Z,27.65
2022-12-13T20:15:11.914Z,23.08
2022-12-13T20:17:39.306Z,23.27
2022-12-13T20:20:09.532Z,26.08
2022-12-13T20:22:36.960Z,27.65
2022-12-13T20:25:04.522Z,26.05
2022-12-13T20:27:31.826Z,21.77
2022-12-13T20:29:59.656Z,23.38
2022-12-13T20:32:26.949Z,22.95
2022-12-13T20:34:56.425Z,28.50
2022-12-13T20:37:24.602Z,21.70
2022-12-13T20:39:51.799Z,22.60
2022-12-13T20:42:19.171Z,21.83
2022-12-13T20:44:46.585Z,24.23
2022-12-13T20:47:13.834Z,22.58
2022-12-13T20:49:41.263Z,24.90
2022-12-13T20:52:08.716Z,23.42
2022-12-13T20:54:36.220Z,23.60
2022-12-13T20:57:03.525Z,20.83
2022-12-13T20:59:30.843Z,23.90
2022-12-13T21:01:58.246Z,26.20
2022-12-13T21:04:25.766Z,21.17
2022-12-13T21:06:53.219Z,21.98
2022-12-13T21:09:20.555Z,21.70
2022-12-13T21:11:48.803Z,23.92
2022-12-13T21:14:25.252Z,19.63
2022-12-13T21:16:57.034Z,22.77
2022-12-13T21:19:39.417Z,20.15
2022-12-13T21:22:07.936Z,21.23
2022-12-13T21:24:35.273Z,18.77
2022-12-13T21:27:02.572Z,22.35
2022-12-13T21:29:29.810Z,20.98
2022-12-13T21:31:57.301Z,22.50
2022-12-13T21:34:24.836Z,21.73
2022-12-13T21:36:52.899Z,20.27
2022-12-13T21:39:22.719Z,22.23
2022-12-13T21:41:50.523Z,21.17
2022-12-13T21:44:18.232Z,24.05
2022-12-13T21:49:33.287Z,19.00
2022-12-13T21:52:00.575Z,19.45
2022-12-13T21:54:27.924Z,22.00
2022-12-13T21:57:13.948Z,20.00
2022-12-13T21:59:41.283Z,21.85
2022-12-13T22:02:13.329Z,20.15
2022-12-13T22:04:51.006Z,20.42
2022-12-13T22:07:22.345Z,22.05
2022-12-13T22:09:50.094Z,20.45
2022-12-13T22:12:19.245Z,20.98
2022-12-13T22:14:47.059Z,21.45
2022-12-13T22:17:14.843Z,20.80
2022-12-13T22:19:42.301Z,17.58
2022-12-13T22:22:09.579Z,20.92
2022-12-13T22:24:36.897Z,22.33
2022-12-13T22:27:04.264Z,21.35
2022-12-13T22:29:31.557Z,23.60
2022-12-13T22:31:58.818Z,18.77
2022-12-13T22:34:26.293Z,21.65
2022-12-13T22:36:53.667Z,22.55
2022-12-13T22:39:22.054Z,20.30
2022-12-13T22:41:50.185Z,22.65
2022-12-13T22:44:18.532Z,17.65
2022-12-13T22:46:45.903Z,19.45
2022-12-13T22:49:14.515Z,19.00
2022-12-13T22:51:42.059Z,19.63
2022-12-13T22:54:09.456Z,22.77
2022-12-13T22:56:36.802Z,17.15
2022-12-13T22:59:07.107Z,18.33
2022-12-13T23:01:39.102Z,18.88
2022-12-13T23:04:07.051Z,20.92
2022-12-13T23:06:36.316Z,23.48
2022-12-13T23:09:05.522Z,17.00
2022-12-13T23:11:51.713Z,24.38
2022-12-13T23:14:20.643Z,18.48
2022-12-13T23:16:50.546Z,20.80
2022-12-13T23:19:41.028Z,16.38
2022-12-13T23:22:07.416Z,18.48
2022-12-13T23:24:34.888Z,20.63
2022-12-13T23:27:02.171Z,22.08
2022-12-13T23:29:29.841Z,18.95
2022-12-13T23:31:57.141Z,19.55
2022-12-13T23:34:24.435Z,17.10
2022-12-13T23:36:51.761Z,19.90
2022-12-13T23:39:18.996Z,19.63
2022-12-13T23:41:46.292Z,21.67
2022-12-13T23:44:13.566Z,19.83
2022-12-13T23:46:40.852Z,19.67
2022-12-13T23:49:08.752Z,18.00
2022-12-13T23:51:38.058Z,19.58
2022-12-13T23:54:06.153Z,19.38
2022-12-13T23:56:33.462Z,16.83
2022-12-13T23:59:00.827Z,19.88
